< < Back
Terminal Aerodrome Forecast


Current Version              Previous Versions:   1  2  3  4  5  6  7  8  9  

Terminal Aerodrome Forecast

712
FTUS44 KMOB 021100 RRA
TAFMOB
TAF
KMOB 021156Z 0212/0312 00000KT P6SM BKN050 BKN250
     FM021300 15006KT P6SM VCSH SCT030 BKN050
      TEMPO 0218/0222 4SM TSRA BKN030CB
     FM030000 16006KT P6SM VCTS SCT030CB OVC100
      TEMPO 0300/0304 5SM -TSRA BKN050CB=

Latest METAR

931
SAUS80 KWBC 021400
MTRMOB
METAR KMOB 021356Z 11005KT 10SM FEW030 BKN050 BKN200 25/24 A3004 RMK AO2
SLP170 TCU DSNT N T02500244


USA.gov is the U.S. government's official web portal to all federal, state and local government web resources and services.